Piarco FIR Weather

TAPA 220700Z 08008KT 9999 SCT018 25/20 Q1015 NOSIG

TBPB 220800Z 11016KT 9999 FEW018 SCT036 24/22 Q1013 NOSIG

TDPD 220000Z 13006KT 9999 SCT017 25/20 Q1016

TFFF 220830Z AUTO 09009KT 9999 FEW021 BKN032 BKN068 24/22 Q1014 TEMPO 4000 SHRA BKN018TCU

TFFR 220830Z AUTO 00000KT CAVOK 21/20 Q1015 TEMPO 10015KT 4000 SHRA BKN015TCU

TGPY 220800Z 07003KT 9999 SCTO18 25/23 Q1012 NOSIG

TKPK 220100Z 06013KT 9999 FEW022 25/21 Q1017

TKPN 212200Z 09012KT 9999 FEW022 27/20 Q1015

TLPC 220000Z 08009KT 9999 BKN020 26/22 Q1015 TEMPO SHRA

TLPL 220800Z 09018KT 9999 BKN019 25/23 Q1014 NOSIG

TTCP 220800Z 10005KT 9999 FEW015 ///// Q1012 NOSIG

TTPP 220800Z 00000KT 9999 FEW015 22/22 Q1012 NOSIG

TVSV 162300Z 09007KT 050V140 9999 FEW020 26/21 Q1014